createdAt,value
2017-11-07T00:01:16.111Z,5.78
2017-11-07T00:03:43.692Z,5.74
2017-11-07T00:06:11.281Z,5.54
2017-11-07T00:08:38.894Z,5.64
2017-11-07T00:11:07.208Z,5.65
2017-11-07T00:13:34.824Z,5.63
2017-11-07T00:16:02.375Z,5.57
2017-11-07T00:18:30.036Z,5.73
2017-11-07T00:20:57.651Z,5.68
2017-11-07T00:23:25.224Z,5.58
2017-11-07T00:25:52.819Z,5.81
2017-11-07T00:28:20.415Z,5.85
2017-11-07T00:30:48.011Z,5.92
2017-11-07T00:33:16.077Z,5.93
2017-11-07T00:35:43.780Z,5.95
2017-11-07T00:38:11.470Z,5.86
2017-11-07T00:40:39.130Z,5.84
2017-11-07T00:43:06.774Z,5.81
2017-11-07T00:45:34.479Z,5.76
2017-11-07T00:48:02.175Z,5.77
2017-11-07T00:50:29.776Z,5.89
2017-11-07T00:52:57.487Z,5.92
2017-11-07T00:55:25.109Z,6.03
2017-11-07T00:57:52.750Z,6.09
2017-11-07T01:00:20.329Z,6.00
2017-11-07T01:02:47.926Z,6.04
2017-11-07T01:05:15.498Z,6.15
2017-11-07T01:07:43.071Z,6.15
2017-11-07T01:10:10.715Z,6.14
2017-11-07T01:12:38.322Z,6.10
2017-11-07T01:15:06.057Z,6.00
2017-11-07T01:17:33.717Z,6.05
2017-11-07T01:20:01.292Z,6.08
2017-11-07T01:22:28.883Z,5.98
2017-11-07T01:24:56.489Z,6.00
2017-11-07T01:27:24.323Z,5.94
2017-11-07T01:29:51.919Z,5.96
2017-11-07T01:32:19.538Z,5.98
2017-11-07T01:34:47.113Z,5.80
2017-11-07T01:37:14.670Z,5.80
2017-11-07T01:39:42.309Z,5.74
2017-11-07T01:42:09.937Z,5.59
2017-11-07T01:44:37.525Z,5.68
2017-11-07T01:47:05.176Z,5.70
2017-11-07T01:49:32.849Z,5.57
2017-11-07T01:52:00.451Z,5.53
2017-11-07T01:54:28.032Z,5.65
2017-11-07T01:56:55.600Z,5.71
2017-11-07T01:59:23.218Z,5.68
2017-11-07T02:01:50.781Z,5.78
2017-11-07T02:04:18.377Z,5.83
2017-11-07T02:06:46.067Z,6.00
2017-11-07T02:09:13.641Z,5.98
2017-11-07T02:11:41.228Z,5.98
2017-11-07T02:14:08.940Z,6.11
2017-11-07T02:16:36.548Z,6.24
2017-11-07T02:19:04.145Z,6.36
2017-11-07T02:21:31.804Z,6.44
2017-11-07T02:23:59.413Z,6.42
2017-11-07T02:26:27.049Z,6.41
2017-11-07T02:28:54.666Z,6.49
2017-11-07T02:31:22.591Z,6.47
2017-11-07T02:33:50.344Z,6.49
2017-11-07T02:39:08.350Z,6.48
2017-11-07T02:41:35.957Z,6.57
2017-11-07T02:44:03.546Z,6.65
2017-11-07T02:46:31.204Z,6.70
2017-11-07T02:48:58.821Z,6.59
2017-11-07T02:51:26.699Z,6.67
2017-11-07T02:53:54.363Z,6.72
2017-11-07T02:56:21.963Z,6.73
2017-11-07T02:58:49.995Z,6.70
2017-11-07T03:01:18.074Z,6.59
2017-11-07T03:03:46.673Z,6.54
2017-11-07T03:06:14.345Z,6.51
2017-11-07T03:08:42.056Z,6.51
2017-11-07T03:11:11.492Z,6.55
2017-11-07T03:13:39.271Z,6.68
2017-11-07T03:16:06.859Z,6.68
2017-11-07T03:18:37.415Z,6.69
2017-11-07T03:21:05.104Z,6.77
2017-11-07T03:23:32.678Z,6.84
2017-11-07T03:26:01.396Z,6.90
2017-11-07T03:28:30.159Z,6.85
2017-11-07T03:30:57.746Z,6.85
2017-11-07T03:33:25.757Z,6.90
2017-11-07T03:35:55.497Z,6.79
2017-11-07T03:38:23.202Z,6.80
2017-11-07T03:40:50.804Z,6.82
2017-11-07T03:43:18.768Z,6.75
2017-11-07T03:45:47.209Z,6.78
2017-11-07T03:48:14.839Z,6.77
2017-11-07T03:50:42.401Z,6.66
2017-11-07T03:53:11.016Z,6.68
2017-11-07T03:55:38.607Z,6.76
2017-11-07T03:58:06.168Z,6.76
2017-11-07T04:00:34.502Z,6.76
2017-11-07T04:03:02.077Z,6.75
2017-11-07T04:05:29.869Z,6.77
2017-11-07T04:07:57.438Z,6.77
2017-11-07T04:10:25.023Z,6.78
2017-11-07T04:12:52.628Z,6.74
2017-11-07T04:15:20.585Z,6.76
2017-11-07T04:20:38.716Z,6.75
2017-11-07T04:23:06.510Z,6.82
2017-11-07T04:25:34.956Z,6.75
2017-11-07T04:28:02.548Z,6.80
2017-11-07T04:30:31.317Z,6.81
2017-11-07T04:32:58.933Z,6.78
2017-11-07T04:35:26.765Z,6.74
2017-11-07T04:37:54.330Z,6.81
2017-11-07T04:40:22.047Z,6.76
2017-11-07T04:42:49.617Z,6.84
2017-11-07T04:45:17.211Z,6.81
2017-11-07T04:47:44.791Z,6.71
2017-11-07T04:50:12.518Z,6.69
2017-11-07T04:52:40.083Z,6.75
2017-11-07T04:55:07.736Z,6.86
2017-11-07T04:57:36.186Z,6.85
2017-11-07T05:00:04.258Z,6.74
2017-11-07T05:02:31.989Z,6.76
2017-11-07T05:04:59.592Z,6.79
2017-11-07T05:07:27.616Z,6.78
2017-11-07T05:09:55.221Z,6.85
2017-11-07T05:12:23.205Z,6.87
2017-11-07T05:14:50.789Z,6.81
2017-11-07T05:17:18.827Z,6.80
2017-11-07T05:19:46.461Z,6.83
2017-11-07T05:22:14.045Z,6.78
2017-11-07T05:24:41.625Z,6.86
2017-11-07T05:27:09.856Z,6.82
2017-11-07T05:29:37.468Z,6.86
2017-11-07T05:32:05.093Z,6.85
2017-11-07T05:34:32.674Z,6.86
2017-11-07T05:37:00.284Z,6.85
2017-11-07T05:39:29.111Z,6.80
2017-11-07T05:41:56.761Z,6.86
2017-11-07T05:44:25.127Z,6.76
2017-11-07T05:46:52.707Z,6.87
2017-11-07T05:49:20.308Z,6.86
2017-11-07T05:51:48.024Z,6.84
2017-11-07T05:54:15.696Z,6.79
2017-11-07T05:56:43.285Z,6.87
2017-11-07T05:59:10.925Z,6.92
2017-11-07T06:01:39.188Z,6.98
2017-11-07T06:04:06.793Z,7.00
2017-11-07T06:06:34.346Z,6.88
2017-11-07T06:09:01.924Z,6.87
2017-11-07T06:11:30.084Z,6.80
2017-11-07T06:13:58.499Z,6.86
2017-11-07T06:16:26.115Z,6.90
2017-11-07T06:18:53.723Z,6.93
2017-11-07T06:21:21.295Z,6.75
2017-11-07T06:23:48.892Z,6.80
2017-11-07T06:26:16.558Z,6.90
2017-11-07T06:28:44.182Z,6.94
2017-11-07T06:31:11.846Z,6.92
2017-11-07T06:33:39.429Z,6.93
2017-11-07T06:36:07.249Z,6.84
2017-11-07T06:38:34.971Z,7.01
2017-11-07T06:41:02.977Z,7.03
2017-11-07T06:43:30.991Z,6.93
2017-11-07T06:45:58.570Z,6.93
2017-11-07T06:48:27.016Z,6.89
2017-11-07T06:50:54.598Z,6.93
2017-11-07T06:53:22.559Z,6.98
2017-11-07T06:55:50.136Z,7.01
2017-11-07T06:58:17.735Z,7.03
2017-11-07T07:00:45.339Z,7.03
2017-11-07T07:03:14.602Z,7.06
2017-11-07T07:05:45.104Z,7.05
2017-11-07T07:08:12.745Z,7.13
2017-11-07T07:10:40.380Z,7.11
2017-11-07T07:13:08.015Z,7.11
2017-11-07T07:15:35.582Z,7.10
2017-11-07T07:18:03.160Z,7.13
2017-11-07T07:20:30.753Z,7.10
2017-11-07T07:22:58.347Z,7.11
2017-11-07T07:25:25.945Z,7.17
2017-11-07T07:27:54.020Z,7.25
2017-11-07T07:30:21.953Z,7.22
2017-11-07T07:32:49.553Z,7.21
2017-11-07T07:35:17.134Z,7.20
2017-11-07T07:37:44.746Z,7.28
2017-11-07T07:40:12.329Z,7.28
2017-11-07T07:42:40.736Z,7.22
2017-11-07T07:45:08.762Z,7.33
2017-11-07T07:47:36.350Z,7.37
2017-11-07T07:50:04.169Z,7.38
2017-11-07T07:52:33.248Z,7.36
2017-11-07T07:55:00.838Z,7.31
2017-11-07T07:57:29.029Z,7.31
2017-11-07T07:59:56.631Z,7.39
2017-11-07T08:02:24.364Z,7.44
2017-11-07T08:04:52.129Z,7.36
2017-11-07T08:07:19.719Z,7.35
2017-11-07T08:09:47.306Z,7.37
2017-11-07T08:12:15.387Z,7.32
2017-11-07T08:14:43.056Z,7.33
2017-11-07T08:17:11.006Z,7.36
2017-11-07T08:19:38.673Z,7.27
2017-11-07T08:22:06.282Z,7.40
2017-11-07T08:24:33.910Z,7.35
2017-11-07T08:27:02.129Z,7.33
2017-11-07T08:29:29.857Z,7.32
2017-11-07T08:31:57.558Z,7.36
2017-11-07T08:34:25.590Z,7.18
2017-11-07T08:36:53.211Z,7.32
2017-11-07T08:39:20.856Z,7.38
2017-11-07T08:41:48.484Z,7.37
2017-11-07T08:44:16.150Z,7.29
2017-11-07T08:46:43.763Z,7.27
2017-11-07T08:49:11.544Z,7.27
2017-11-07T08:51:39.104Z,7.18
2017-11-07T08:54:06.889Z,7.22
2017-11-07T08:56:34.570Z,7.26
2017-11-07T08:59:02.182Z,7.24
2017-11-07T09:01:29.754Z,7.27
2017-11-07T09:03:57.365Z,7.29
2017-11-07T09:06:25.138Z,7.37
2017-11-07T09:08:52.742Z,7.44
2017-11-07T09:11:20.570Z,7.46
2017-11-07T09:13:48.242Z,7.48
2017-11-07T09:16:15.956Z,7.46
2017-11-07T09:18:43.625Z,7.46
2017-11-07T09:24:01.480Z,7.24
2017-11-07T09:26:29.127Z,7.35
2017-11-07T09:28:56.811Z,7.37
2017-11-07T09:31:24.427Z,7.28
2017-11-07T09:33:52.043Z,7.27
2017-11-07T09:36:19.629Z,7.30
2017-11-07T09:38:47.229Z,7.30
2017-11-07T09:41:14.834Z,7.33
2017-11-07T09:43:42.451Z,7.38
2017-11-07T09:46:10.084Z,7.52
2017-11-07T09:48:37.720Z,7.55
2017-11-07T09:51:05.509Z,7.50
2017-11-07T09:53:33.123Z,7.59
2017-11-07T09:56:00.763Z,7.55
2017-11-07T09:58:28.367Z,7.65
2017-11-07T10:00:55.956Z,7.70
2017-11-07T10:03:23.687Z,7.76
2017-11-07T10:05:51.275Z,7.92
2017-11-07T10:08:18.868Z,8.09
2017-11-07T10:10:46.502Z,8.07
2017-11-07T10:13:14.060Z,8.08
2017-11-07T10:15:41.673Z,8.10
2017-11-07T10:18:09.320Z,8.14
2017-11-07T10:20:36.905Z,8.20
2017-11-07T10:23:04.583Z,8.09
2017-11-07T10:25:32.304Z,8.22
2017-11-07T10:27:59.917Z,8.21
2017-11-07T10:30:28.012Z,8.10
2017-11-07T10:32:55.620Z,7.83
2017-11-07T10:35:23.437Z,7.87
2017-11-07T10:37:51.096Z,7.95
2017-11-07T10:40:18.790Z,7.93
2017-11-07T10:42:46.355Z,7.96
2017-11-07T10:45:14.285Z,7.93
2017-11-07T10:47:41.873Z,7.94
2017-11-07T10:50:09.830Z,7.85
2017-11-07T10:52:37.456Z,7.84
2017-11-07T10:55:05.131Z,7.88
2017-11-07T10:57:32.762Z,7.82
2017-11-07T11:00:00.403Z,7.86
2017-11-07T11:02:30.798Z,7.90
2017-11-07T11:04:58.685Z,7.77
2017-11-07T11:07:26.503Z,7.84
2017-11-07T11:09:54.411Z,8.04
2017-11-07T11:12:22.063Z,8.21
2017-11-07T11:14:49.667Z,8.42
2017-11-07T11:17:17.321Z,8.55
2017-11-07T11:19:44.891Z,8.42
2017-11-07T11:22:12.536Z,8.55
2017-11-07T11:24:40.182Z,8.75
2017-11-07T11:27:08.068Z,9.05
2017-11-07T11:29:36.065Z,8.96
2017-11-07T11:32:04.084Z,8.67
2017-11-07T11:34:31.675Z,8.64
2017-11-07T11:37:00.902Z,8.73
2017-11-07T11:39:28.973Z,8.89
2017-11-07T11:41:56.525Z,8.92
2017-11-07T11:44:24.105Z,9.09
2017-11-07T11:46:51.697Z,9.00
2017-11-07T11:49:19.299Z,8.94
2017-11-07T11:51:46.874Z,8.76
2017-11-07T11:54:14.476Z,8.70
2017-11-07T11:56:42.064Z,8.59
2017-11-07T11:59:09.669Z,8.67
2017-11-07T12:01:37.382Z,8.62
2017-11-07T12:04:04.979Z,8.67
2017-11-07T12:06:32.560Z,8.68
2017-11-07T12:09:00.194Z,8.86
2017-11-07T12:11:27.922Z,9.06
2017-11-07T12:14:01.260Z,9.15
2017-11-07T12:16:28.848Z,9.32
2017-11-07T12:18:56.654Z,9.39
2017-11-07T12:21:25.001Z,9.66
2017-11-07T12:23:52.593Z,9.81
2017-11-07T12:26:20.257Z,9.82
2017-11-07T12:28:47.903Z,10.02
2017-11-07T12:31:15.510Z,10.02
2017-11-07T12:33:43.101Z,10.03
2017-11-07T12:36:10.690Z,10.13
2017-11-07T12:38:38.310Z,10.64
2017-11-07T12:41:06.050Z,11.73
2017-11-07T12:43:33.674Z,12.34
2017-11-07T12:46:01.250Z,12.27
2017-11-07T12:48:29.214Z,11.58
2017-11-07T12:51:08.900Z,11.70
2017-11-07T12:53:36.542Z,11.48
2017-11-07T12:56:04.116Z,11.58
2017-11-07T12:58:31.927Z,12.23
2017-11-07T13:00:59.511Z,12.46
2017-11-07T13:03:27.162Z,12.01
2017-11-07T13:05:54.718Z,11.20
2017-11-07T13:08:22.356Z,10.86
2017-11-07T13:10:49.945Z,10.57
2017-11-07T13:13:17.547Z,10.29
2017-11-07T13:15:45.129Z,10.27
2017-11-07T13:18:12.748Z,10.48
2017-11-07T13:20:40.334Z,11.06
2017-11-07T13:23:07.951Z,11.40
2017-11-07T13:25:36.072Z,11.90
2017-11-07T13:28:03.695Z,12.02
2017-11-07T13:30:32.524Z,12.58
2017-11-07T13:33:00.165Z,12.65
2017-11-07T13:35:27.737Z,12.31
2017-11-07T13:37:55.428Z,12.18
2017-11-07T13:40:23.032Z,12.53
2017-11-07T13:42:50.631Z,11.38
2017-11-07T13:45:18.230Z,10.80
2017-11-07T13:47:45.964Z,10.28
2017-11-07T13:50:13.581Z,10.00
2017-11-07T13:52:41.179Z,9.84
2017-11-07T13:55:08.826Z,9.56
2017-11-07T13:57:36.400Z,9.27
2017-11-07T14:00:04.067Z,9.33
2017-11-07T14:02:31.673Z,9.13
2017-11-07T14:04:59.310Z,9.28
2017-11-07T14:07:26.899Z,9.30
2017-11-07T14:09:54.505Z,9.39
2017-11-07T14:12:23.994Z,9.39
2017-11-07T14:14:51.637Z,9.34
2017-11-07T14:17:19.255Z,9.07
2017-11-07T14:19:46.845Z,8.88
2017-11-07T14:22:14.515Z,8.62
2017-11-07T14:24:42.071Z,8.49
2017-11-07T14:27:09.760Z,8.46
2017-11-07T14:29:37.456Z,8.36
2017-11-07T14:32:05.051Z,8.38
2017-11-07T14:34:32.642Z,8.53
2017-11-07T14:37:00.244Z,8.39
2017-11-07T14:39:28.791Z,8.37
2017-11-07T14:41:56.506Z,8.34
2017-11-07T14:44:24.089Z,8.15
2017-11-07T14:46:51.699Z,8.08
2017-11-07T14:49:19.271Z,8.07
2017-11-07T14:51:46.859Z,7.93
2017-11-07T14:54:14.560Z,7.88
2017-11-07T14:56:42.160Z,7.77
2017-11-07T14:59:09.820Z,7.79
2017-11-07T15:01:40.369Z,7.81
2017-11-07T15:04:08.029Z,7.86
2017-11-07T15:06:35.659Z,7.87
2017-11-07T15:09:07.231Z,7.86
2017-11-07T15:11:36.239Z,7.94
2017-11-07T15:14:03.826Z,8.02
2017-11-07T15:16:31.416Z,8.12
2017-11-07T15:18:59.028Z,8.05
2017-11-07T15:21:26.601Z,7.98
2017-11-07T15:23:54.224Z,7.98
2017-11-07T15:26:21.818Z,8.05
2017-11-07T15:28:49.405Z,8.05
2017-11-07T15:31:17.029Z,8.09
2017-11-07T15:33:49.523Z,8.06
2017-11-07T15:36:17.093Z,8.06
2017-11-07T15:38:44.693Z,8.06
2017-11-07T15:41:13.729Z,8.09
2017-11-07T15:43:41.604Z,8.10
2017-11-07T15:46:09.194Z,8.07
2017-11-07T15:48:37.686Z,8.09
2017-11-07T15:51:08.479Z,7.97
2017-11-07T15:53:37.651Z,7.87
2017-11-07T15:56:07.145Z,7.83
2017-11-07T15:58:34.746Z,7.73
2017-11-07T16:01:02.348Z,7.61
2017-11-07T16:03:31.092Z,7.50
2017-11-07T16:05:58.643Z,7.43
2017-11-07T16:08:26.283Z,7.47
2017-11-07T16:10:53.962Z,7.45
2017-11-07T16:13:21.574Z,7.43
2017-11-07T16:15:49.183Z,7.44
2017-11-07T16:18:17.065Z,7.53
2017-11-07T16:20:44.639Z,7.70
2017-11-07T16:23:12.289Z,7.77
2017-11-07T16:25:39.889Z,7.92
2017-11-07T16:28:07.974Z,7.90
2017-11-07T16:30:35.786Z,7.84
2017-11-07T16:33:03.391Z,7.77
2017-11-07T16:35:31.058Z,7.91
2017-11-07T16:37:58.655Z,8.01
2017-11-07T16:40:26.245Z,8.19
2017-11-07T16:42:53.816Z,8.20
2017-11-07T16:48:11.607Z,8.24
2017-11-07T16:50:39.196Z,8.22
2017-11-07T16:53:06.796Z,8.35
2017-11-07T16:55:35.439Z,8.20
2017-11-07T17:00:53.480Z,8.31
2017-11-07T17:03:22.557Z,8.38
2017-11-07T17:05:50.305Z,8.39
2017-11-07T17:08:18.030Z,8.47
2017-11-07T17:10:45.921Z,8.40
2017-11-07T17:13:13.568Z,8.38
2017-11-07T17:15:41.555Z,8.38
2017-11-07T17:18:09.449Z,8.48
2017-11-07T17:20:37.194Z,8.43
2017-11-07T17:23:06.148Z,8.43
2017-11-07T17:25:34.140Z,8.46
2017-11-07T17:28:01.737Z,8.37
2017-11-07T17:30:29.392Z,8.37
2017-11-07T17:32:57.682Z,8.34
2017-11-07T17:35:25.355Z,8.28
2017-11-07T17:37:52.949Z,8.24
2017-11-07T17:40:38.149Z,8.36
2017-11-07T17:43:07.556Z,8.39
2017-11-07T17:45:37.979Z,8.32
2017-11-07T17:48:05.790Z,8.19
2017-11-07T17:50:33.360Z,8.18
2017-11-07T17:53:00.950Z,8.24
2017-11-07T17:55:30.586Z,8.22
2017-11-07T17:57:58.293Z,8.16
2017-11-07T18:00:25.891Z,8.01
2017-11-07T18:02:53.530Z,8.06
2017-11-07T18:05:22.683Z,8.05
2017-11-07T18:07:50.366Z,8.03
2017-11-07T18:10:18.298Z,8.06
2017-11-07T18:12:46.490Z,8.00
2017-11-07T18:15:14.228Z,7.93
2017-11-07T18:17:42.674Z,7.87
2017-11-07T18:20:12.717Z,7.80
2017-11-07T18:22:40.265Z,7.71
2017-11-07T18:25:07.899Z,7.78
2017-11-07T18:27:35.503Z,7.78
2017-11-07T18:30:03.192Z,7.74
2017-11-07T18:32:35.275Z,7.82
2017-11-07T18:35:06.138Z,7.88
2017-11-07T18:37:33.708Z,7.85
2017-11-07T18:40:01.291Z,7.77
2017-11-07T18:42:28.974Z,7.77
2017-11-07T18:44:56.518Z,7.83
2017-11-07T18:47:24.745Z,7.84
2017-11-07T18:49:52.333Z,7.89
2017-11-07T18:52:20.527Z,7.94
2017-11-07T18:54:48.354Z,7.86
2017-11-07T18:57:15.961Z,7.89
2017-11-07T18:59:43.606Z,7.82
2017-11-07T19:02:11.168Z,7.77
2017-11-07T19:04:38.739Z,7.80
2017-11-07T19:07:07.987Z,7.71
2017-11-07T19:09:35.593Z,7.59
2017-11-07T19:12:04.201Z,7.64
2017-11-07T19:14:31.760Z,7.72
2017-11-07T19:16:59.329Z,7.66
2017-11-07T19:19:26.931Z,7.71
2017-11-07T19:21:54.508Z,7.80
2017-11-07T19:24:22.176Z,7.86
2017-11-07T19:26:49.765Z,8.00
2017-11-07T19:29:17.402Z,8.14
2017-11-07T19:31:45.080Z,8.30
2017-11-07T19:34:14.588Z,8.30
2017-11-07T19:36:42.250Z,8.29
2017-11-07T19:39:09.915Z,8.32
2017-11-07T19:41:37.545Z,8.43
2017-11-07T19:44:07.020Z,8.42
2017-11-07T19:46:34.718Z,8.41
2017-11-07T19:49:04.373Z,8.48
2017-11-07T19:51:31.945Z,8.51
2017-11-07T19:54:00.280Z,8.42
2017-11-07T19:56:28.192Z,8.47
2017-11-07T19:58:55.761Z,8.42
2017-11-07T20:01:23.368Z,8.41
2017-11-07T20:03:51.881Z,8.40
2017-11-07T20:06:19.507Z,8.48
2017-11-07T20:08:47.133Z,8.59
2017-11-07T20:11:27.459Z,8.59
2017-11-07T20:13:55.057Z,8.49
2017-11-07T20:16:22.904Z,8.59
2017-11-07T20:18:50.537Z,8.58
2017-11-07T20:21:18.148Z,8.62
2017-11-07T20:23:45.715Z,8.52
2017-11-07T20:26:13.346Z,8.44
2017-11-07T20:28:40.948Z,8.41
2017-11-07T20:31:08.963Z,8.30
2017-11-07T20:33:36.578Z,8.23
2017-11-07T20:36:04.493Z,8.33
2017-11-07T20:38:32.076Z,8.30
2017-11-07T20:40:59.630Z,8.19
2017-11-07T20:43:27.261Z,8.17
2017-11-07T20:45:54.853Z,8.25
2017-11-07T20:48:22.438Z,8.42
2017-11-07T20:50:50.045Z,8.42
2017-11-07T20:53:17.642Z,8.44
2017-11-07T20:55:45.253Z,8.41
2017-11-07T20:58:12.855Z,8.45
2017-11-07T21:00:40.431Z,8.55
2017-11-07T21:03:08.026Z,8.59
2017-11-07T21:05:35.915Z,8.55
2017-11-07T21:08:04.414Z,8.53
2017-11-07T21:10:32.016Z,8.48
2017-11-07T21:12:59.625Z,8.51
2017-11-07T21:15:27.225Z,8.62
2017-11-07T21:17:54.827Z,8.57
2017-11-07T21:20:25.426Z,8.54
2017-11-07T21:22:53.399Z,8.47
2017-11-07T21:25:21.449Z,8.41
2017-11-07T21:27:53.711Z,8.52
2017-11-07T21:30:21.392Z,8.51
2017-11-07T21:32:48.961Z,8.44
2017-11-07T21:35:16.606Z,8.52
2017-11-07T21:37:44.216Z,8.41
2017-11-07T21:40:11.976Z,8.51
2017-11-07T21:42:39.610Z,8.49
2017-11-07T21:45:07.290Z,8.46
2017-11-07T21:47:34.881Z,8.50
2017-11-07T21:50:02.530Z,8.50
2017-11-07T21:52:30.146Z,8.44
2017-11-07T21:54:58.527Z,8.50
2017-11-07T21:57:26.789Z,8.50
2017-11-07T21:59:54.421Z,8.49
2017-11-07T22:02:22.008Z,8.36
2017-11-07T22:04:49.615Z,8.36
2017-11-07T22:07:17.250Z,8.27
2017-11-07T22:09:44.868Z,8.24
2017-11-07T22:12:16.125Z,8.22
2017-11-07T22:14:43.693Z,8.16
2017-11-07T22:17:11.337Z,8.07
2017-11-07T22:19:39.066Z,8.02
2017-11-07T22:22:06.700Z,8.10
2017-11-07T22:24:34.265Z,8.11
2017-11-07T22:27:03.804Z,8.20
2017-11-07T22:29:32.221Z,8.23
2017-11-07T22:31:59.854Z,8.23
2017-11-07T22:34:27.475Z,8.21
2017-11-07T22:36:55.045Z,8.28
2017-11-07T22:39:22.650Z,8.30
2017-11-07T22:41:50.225Z,8.39
2017-11-07T22:44:17.764Z,8.41
2017-11-07T22:46:45.343Z,8.41
2017-11-07T22:49:13.274Z,8.43
2017-11-07T22:51:40.874Z,8.38
2017-11-07T22:54:08.443Z,8.39
2017-11-07T22:56:36.081Z,8.42
2017-11-07T22:59:03.655Z,8.40
2017-11-07T23:01:32.356Z,8.37
2017-11-07T23:04:01.947Z,8.25
2017-11-07T23:06:31.250Z,8.21
2017-11-07T23:08:58.969Z,8.21
2017-11-07T23:11:26.615Z,8.33
2017-11-07T23:13:54.192Z,8.20
2017-11-07T23:16:21.738Z,8.17
2017-11-07T23:18:49.341Z,8.22
2017-11-07T23:21:19.234Z,8.31
2017-11-07T23:23:46.861Z,8.27
2017-11-07T23:26:14.491Z,8.28
2017-11-07T23:28:42.084Z,8.22
2017-11-07T23:31:10.297Z,8.16
2017-11-07T23:33:37.882Z,8.14
2017-11-07T23:36:05.547Z,7.92
2017-11-07T23:38:33.132Z,8.09
2017-11-07T23:41:00.781Z,8.06
2017-11-07T23:43:28.756Z,7.94
2017-11-07T23:45:56.328Z,7.99
2017-11-07T23:48:23.969Z,7.95
2017-11-07T23:50:51.608Z,7.88
2017-11-07T23:53:19.167Z,7.71
2017-11-07T23:55:46.745Z,7.65
2017-11-07T23:58:14.614Z,7.89
